createdAt,value
2018-11-29T00:00:48.832Z,31.07
2018-11-29T00:03:16.142Z,34.50
2018-11-29T00:05:43.434Z,36.90
2018-11-29T00:08:10.733Z,35.73
2018-11-29T00:10:38.772Z,35.53
2018-11-29T00:13:06.135Z,34.60
2018-11-29T00:15:33.798Z,32.50
2018-11-29T00:18:01.063Z,33.30
2018-11-29T00:20:28.424Z,32.80
2018-11-29T00:22:55.730Z,37.17
2018-11-29T00:25:23.013Z,33.83
2018-11-29T00:27:50.373Z,33.87
2018-11-29T00:30:20.486Z,30.80
2018-11-29T00:32:48.059Z,35.60
2018-11-29T00:35:15.895Z,36.03
2018-11-29T00:37:43.285Z,37.43
2018-11-29T00:40:18.898Z,35.07
2018-11-29T00:42:46.238Z,40.47
2018-11-29T00:45:15.155Z,32.60
2018-11-29T00:47:42.845Z,31.97
2018-11-29T00:50:11.876Z,36.03
2018-11-29T00:52:40.738Z,32.20
2018-11-29T00:55:09.986Z,34.20
2018-11-29T00:57:37.545Z,34.20
2018-11-29T01:00:10.030Z,37.00
2018-11-29T01:02:37.340Z,36.50
2018-11-29T01:05:05.039Z,31.50
2018-11-29T01:07:32.239Z,33.47
2018-11-29T01:09:59.544Z,34.13
2018-11-29T01:12:26.811Z,38.33
2018-11-29T01:14:54.152Z,35.93
2018-11-29T01:17:21.509Z,39.90
2018-11-29T01:19:48.806Z,36.33
2018-11-29T01:22:16.855Z,36.93
2018-11-29T01:24:44.107Z,44.20
2018-11-29T01:27:11.386Z,64.77
2018-11-29T01:29:38.644Z,42.20
2018-11-29T01:32:06.883Z,39.97
2018-11-29T01:34:34.169Z,33.13
2018-11-29T01:37:01.517Z,39.60
2018-11-29T01:39:28.877Z,39.40
2018-11-29T01:41:56.211Z,38.83
2018-11-29T01:44:23.498Z,38.13
2018-11-29T01:46:50.854Z,38.10
2018-11-29T01:49:18.295Z,38.23
2018-11-29T01:51:45.683Z,42.40
2018-11-29T01:54:13.037Z,44.13
2018-11-29T01:56:40.362Z,44.77
2018-11-29T01:59:07.670Z,36.20
2018-11-29T02:01:34.943Z,39.07
2018-11-29T02:04:02.336Z,36.10
2018-11-29T02:06:29.616Z,35.13
2018-11-29T02:08:56.993Z,39.77
2018-11-29T02:11:24.337Z,41.47
2018-11-29T02:13:51.662Z,43.60
2018-11-29T02:16:19.047Z,46.77
2018-11-29T02:18:46.339Z,41.77
2018-11-29T02:21:13.749Z,37.13
2018-11-29T02:23:41.067Z,36.90
2018-11-29T02:26:08.367Z,43.83
2018-11-29T02:28:35.614Z,40.87
2018-11-29T02:31:02.871Z,41.53
2018-11-29T02:33:30.211Z,46.60
2018-11-29T02:35:57.491Z,43.57
2018-11-29T02:38:24.839Z,43.77
2018-11-29T02:40:52.859Z,45.87
2018-11-29T02:43:20.159Z,47.60
2018-11-29T02:45:47.526Z,44.57
2018-11-29T02:48:14.804Z,45.57
2018-11-29T02:50:42.128Z,44.77
2018-11-29T02:53:09.447Z,43.63
2018-11-29T02:55:36.739Z,41.43
2018-11-29T02:58:04.155Z,42.60
2018-11-29T03:00:31.576Z,39.87
2018-11-29T03:02:58.835Z,46.27
2018-11-29T03:05:26.098Z,46.20
2018-11-29T03:07:53.346Z,42.07
2018-11-29T03:10:25.606Z,42.67
2018-11-29T03:12:52.947Z,44.33
2018-11-29T03:15:20.489Z,45.57
2018-11-29T03:17:47.889Z,43.50
2018-11-29T03:20:15.192Z,47.00
2018-11-29T03:22:42.546Z,47.90
2018-11-29T03:25:10.852Z,44.00
2018-11-29T03:27:38.928Z,45.43
2018-11-29T03:30:08.575Z,43.90
2018-11-29T03:32:35.993Z,38.13
2018-11-29T03:35:03.361Z,43.53
2018-11-29T03:37:30.645Z,51.40
2018-11-29T03:39:57.950Z,44.33
2018-11-29T03:42:25.214Z,45.50
2018-11-29T03:44:52.540Z,41.63
2018-11-29T03:47:19.848Z,44.80
2018-11-29T03:49:47.173Z,42.13
2018-11-29T03:52:14.503Z,41.30
2018-11-29T03:54:41.865Z,45.57
2018-11-29T03:57:09.278Z,48.07
2018-11-29T03:59:36.611Z,45.10
2018-11-29T04:02:04.228Z,41.90
2018-11-29T04:04:31.552Z,44.63
2018-11-29T04:06:58.925Z,43.17
2018-11-29T04:09:26.339Z,43.83
2018-11-29T04:11:53.634Z,46.77
2018-11-29T04:14:20.946Z,49.40
2018-11-29T04:16:48.242Z,45.50
2018-11-29T04:19:15.564Z,43.20
2018-11-29T04:21:42.918Z,45.67
2018-11-29T04:24:10.186Z,37.30
2018-11-29T04:26:37.509Z,45.03
2018-11-29T04:29:04.908Z,43.80
2018-11-29T04:31:32.216Z,45.70
2018-11-29T04:33:59.532Z,37.43
2018-11-29T04:36:26.931Z,42.30
2018-11-29T04:38:54.401Z,37.50
2018-11-29T04:41:21.704Z,43.50
2018-11-29T04:43:48.959Z,44.97
2018-11-29T04:46:48.225Z,36.00
2018-11-29T04:49:15.603Z,40.00
2018-11-29T04:51:42.904Z,47.00
2018-11-29T04:54:10.493Z,43.67
2018-11-29T04:56:38.296Z,42.50
2018-11-29T04:59:05.973Z,43.97
2018-11-29T05:01:33.312Z,39.87
2018-11-29T05:04:00.683Z,39.80
2018-11-29T05:06:28.036Z,41.03
2018-11-29T05:08:55.326Z,43.93
2018-11-29T05:11:22.641Z,33.70
2018-11-29T05:13:49.920Z,39.40
2018-11-29T05:16:17.422Z,40.10
2018-11-29T05:18:44.802Z,44.87
2018-11-29T05:21:12.092Z,38.10
2018-11-29T05:23:39.400Z,40.13
2018-11-29T05:26:06.671Z,41.03
2018-11-29T05:28:33.937Z,40.23
2018-11-29T05:31:01.247Z,32.23
2018-11-29T05:33:28.577Z,37.27
2018-11-29T05:35:55.969Z,42.67
2018-11-29T05:38:23.255Z,32.17
2018-11-29T05:40:50.663Z,36.33
2018-11-29T05:43:17.974Z,40.57
2018-11-29T05:45:45.327Z,39.60
2018-11-29T05:48:12.601Z,36.33
2018-11-29T05:50:39.947Z,37.23
2018-11-29T05:53:07.346Z,35.00
2018-11-29T05:55:34.680Z,33.80
2018-11-29T05:58:01.911Z,36.20
2018-11-29T06:00:29.311Z,38.00
2018-11-29T06:02:56.757Z,40.30
2018-11-29T06:05:24.035Z,43.87
2018-11-29T06:07:51.307Z,33.63
2018-11-29T06:10:20.598Z,37.27
2018-11-29T06:12:47.908Z,42.77
2018-11-29T06:15:15.331Z,37.27
2018-11-29T06:17:42.675Z,39.07
2018-11-29T06:20:14.020Z,37.97
2018-11-29T06:22:41.411Z,39.87
2018-11-29T06:25:09.087Z,37.70
2018-11-29T06:27:36.510Z,37.97
2018-11-29T06:30:07.502Z,35.57
2018-11-29T06:32:34.890Z,41.47
2018-11-29T06:35:02.415Z,38.70
2018-11-29T06:37:29.718Z,41.83
2018-11-29T06:39:57.010Z,39.53
2018-11-29T06:42:24.398Z,39.70
2018-11-29T06:44:51.723Z,33.87
2018-11-29T06:47:19.043Z,38.53
2018-11-29T06:49:46.348Z,39.10
2018-11-29T06:52:14.339Z,38.07
2018-11-29T06:54:41.654Z,38.37
2018-11-29T06:57:08.984Z,43.00
2018-11-29T06:59:36.217Z,36.83
2018-11-29T07:02:03.827Z,42.10
2018-11-29T07:04:31.114Z,38.60
2018-11-29T07:06:58.401Z,40.17
2018-11-29T07:09:25.701Z,44.83
2018-11-29T07:11:53.097Z,39.43
2018-11-29T07:14:20.415Z,39.43
2018-11-29T07:16:47.721Z,37.00
2018-11-29T07:19:15.204Z,39.80
2018-11-29T07:21:50.729Z,41.80
2018-11-29T07:24:18.555Z,38.03
2018-11-29T07:26:46.804Z,38.43
2018-11-29T07:29:16.909Z,36.57
2018-11-29T07:31:41.483Z,35.33
2018-11-29T07:34:08.887Z,40.73
2018-11-29T07:36:36.232Z,37.77
2018-11-29T07:39:05.998Z,38.80
2018-11-29T07:41:33.306Z,34.73
2018-11-29T07:44:00.550Z,43.87
2018-11-29T07:46:27.834Z,39.67
2018-11-29T07:48:55.155Z,36.00
2018-11-29T07:51:22.389Z,39.03
2018-11-29T07:53:49.662Z,43.97
2018-11-29T07:56:17.756Z,40.03
2018-11-29T07:58:45.058Z,40.87
2018-11-29T08:01:12.360Z,42.43
2018-11-29T08:03:39.708Z,41.40
2018-11-29T08:06:07.044Z,41.83
2018-11-29T08:08:35.422Z,39.03
2018-11-29T08:11:02.739Z,45.70
2018-11-29T08:13:30.011Z,42.67
2018-11-29T08:15:57.351Z,36.93
2018-11-29T08:18:24.712Z,38.77
2018-11-29T08:20:51.998Z,43.57
2018-11-29T08:23:19.263Z,37.90
2018-11-29T08:25:46.548Z,37.27
2018-11-29T08:28:13.850Z,45.33
2018-11-29T08:30:41.186Z,44.83
2018-11-29T08:33:08.495Z,37.20
2018-11-29T08:35:35.917Z,39.67
2018-11-29T08:38:03.690Z,40.83
2018-11-29T08:40:30.613Z,40.17
2018-11-29T08:42:57.944Z,49.20
2018-11-29T08:45:25.351Z,38.20
2018-11-29T08:47:52.638Z,41.73
2018-11-29T08:50:19.948Z,43.53
2018-11-29T08:52:48.070Z,46.20
2018-11-29T08:55:18.767Z,42.93
2018-11-29T08:57:46.872Z,44.60
2018-11-29T09:00:15.359Z,38.67
2018-11-29T09:02:42.774Z,45.57
2018-11-29T09:05:10.920Z,45.50
2018-11-29T09:07:38.239Z,46.30
2018-11-29T09:10:09.623Z,43.63
2018-11-29T09:12:36.864Z,43.93
2018-11-29T09:15:05.499Z,37.77
2018-11-29T09:17:32.818Z,46.20
2018-11-29T09:20:00.662Z,44.50
2018-11-29T09:22:27.906Z,44.00
2018-11-29T09:24:55.219Z,40.97
2018-11-29T09:27:22.542Z,40.83
2018-11-29T09:29:49.793Z,37.23
2018-11-29T09:32:17.082Z,41.60
2018-11-29T09:34:44.395Z,40.00
2018-11-29T09:37:11.707Z,40.30
2018-11-29T09:39:39.056Z,42.67
2018-11-29T09:42:06.375Z,45.47
2018-11-29T09:44:33.640Z,40.37
2018-11-29T09:47:00.966Z,40.67
2018-11-29T09:49:28.229Z,39.77
2018-11-29T09:51:55.540Z,37.33
2018-11-29T09:54:22.863Z,38.30
2018-11-29T09:56:50.174Z,39.13
2018-11-29T09:59:17.483Z,37.63
2018-11-29T10:01:44.852Z,42.33
2018-11-29T10:04:12.167Z,41.87
2018-11-29T10:06:39.442Z,43.07
2018-11-29T10:09:08.856Z,40.80
2018-11-29T10:11:36.215Z,46.93
2018-11-29T10:14:03.501Z,46.27
2018-11-29T10:16:30.862Z,46.57
2018-11-29T10:18:58.118Z,50.03
2018-11-29T10:21:25.452Z,41.37
2018-11-29T10:23:52.707Z,41.80
2018-11-29T10:26:20.035Z,38.97
2018-11-29T10:28:47.381Z,44.90
2018-11-29T10:31:14.682Z,48.07
2018-11-29T10:33:42.016Z,42.10
2018-11-29T10:36:09.321Z,45.27
2018-11-29T10:38:36.568Z,42.73
2018-11-29T10:41:04.322Z,37.67
2018-11-29T10:43:31.645Z,47.87
2018-11-29T10:45:58.978Z,46.00
2018-11-29T10:48:26.291Z,41.60
2018-11-29T10:50:53.604Z,37.70
2018-11-29T10:53:20.870Z,46.07
2018-11-29T10:55:48.178Z,43.83
2018-11-29T10:58:15.503Z,43.20
2018-11-29T11:00:48.611Z,35.97
2018-11-29T11:03:19.512Z,35.83
2018-11-29T11:05:48.001Z,44.80
2018-11-29T11:08:16.060Z,36.97
2018-11-29T11:10:42.765Z,42.13
2018-11-29T11:13:10.088Z,44.03
2018-11-29T11:15:37.910Z,45.63
2018-11-29T11:18:06.507Z,37.97
2018-11-29T11:20:33.939Z,47.53
2018-11-29T11:23:01.198Z,46.07
2018-11-29T11:25:28.507Z,40.23
2018-11-29T11:27:55.814Z,38.97
2018-11-29T11:30:23.039Z,32.47
2018-11-29T11:32:51.115Z,39.40
2018-11-29T11:35:18.439Z,40.90
2018-11-29T11:37:45.659Z,43.20
2018-11-29T11:40:14.753Z,36.57
2018-11-29T11:42:42.332Z,33.77
2018-11-29T11:45:11.104Z,37.87
2018-11-29T11:47:38.358Z,37.00
2018-11-29T11:50:11.109Z,37.27
2018-11-29T11:52:38.433Z,42.57
2018-11-29T11:55:05.937Z,41.63
2018-11-29T11:57:33.210Z,42.03
2018-11-29T12:00:00.475Z,43.17
2018-11-29T12:02:27.997Z,36.43
2018-11-29T12:04:55.079Z,39.13
2018-11-29T12:07:22.479Z,40.20
2018-11-29T12:09:49.770Z,34.93
2018-11-29T12:12:17.126Z,38.50
2018-11-29T12:14:44.463Z,33.17
2018-11-29T12:17:11.823Z,33.93
2018-11-29T12:19:39.163Z,35.27
2018-11-29T12:22:06.457Z,35.47
2018-11-29T12:24:33.775Z,36.57
2018-11-29T12:27:01.062Z,42.03
2018-11-29T12:29:28.364Z,39.73
2018-11-29T12:31:55.684Z,39.00
2018-11-29T12:34:23.024Z,33.70
2018-11-29T12:36:50.909Z,42.40
2018-11-29T12:39:18.262Z,38.20
2018-11-29T12:41:45.607Z,40.97
2018-11-29T12:44:12.851Z,43.40
2018-11-29T12:46:40.156Z,40.73
2018-11-29T12:49:07.475Z,39.30
2018-11-29T12:51:34.776Z,39.57
2018-11-29T12:54:02.040Z,42.83
2018-11-29T12:56:29.320Z,39.07
2018-11-29T12:58:56.660Z,43.53
2018-11-29T13:01:24.046Z,39.90
2018-11-29T13:03:51.530Z,40.30
2018-11-29T13:06:18.692Z,32.63
2018-11-29T13:08:45.984Z,41.33
2018-11-29T13:11:13.313Z,36.90
2018-11-29T13:13:40.667Z,37.43
2018-11-29T13:16:07.966Z,41.17
2018-11-29T13:18:35.318Z,42.10
2018-11-29T13:21:02.826Z,44.20
2018-11-29T13:23:30.176Z,36.60
2018-11-29T13:25:57.720Z,40.43
2018-11-29T13:28:25.036Z,41.10
2018-11-29T13:30:52.440Z,39.73
2018-11-29T13:33:19.664Z,40.23
2018-11-29T13:35:46.963Z,38.47
2018-11-29T13:38:15.312Z,37.87
2018-11-29T13:40:44.029Z,38.93
2018-11-29T13:43:11.232Z,36.97
2018-11-29T13:45:38.498Z,35.83
2018-11-29T13:48:07.066Z,39.40
2018-11-29T13:50:34.388Z,40.50
2018-11-29T13:53:01.628Z,34.93
2018-11-29T13:55:28.970Z,34.30
2018-11-29T13:57:56.233Z,38.60
2018-11-29T14:00:23.779Z,35.70
2018-11-29T14:02:57.418Z,38.30
2018-11-29T14:05:24.670Z,38.40
2018-11-29T14:07:52.016Z,33.07
2018-11-29T14:10:20.562Z,40.00
2018-11-29T14:12:49.102Z,34.70
2018-11-29T14:15:18.394Z,36.27
2018-11-29T14:17:45.683Z,34.27
2018-11-29T14:20:13.626Z,43.00
2018-11-29T14:22:40.993Z,35.23
2018-11-29T14:25:09.564Z,34.73
2018-11-29T14:27:36.859Z,36.30
2018-11-29T14:30:11.648Z,34.40
2018-11-29T14:32:38.894Z,36.70
2018-11-29T14:35:06.879Z,37.73
2018-11-29T14:37:34.181Z,33.83
2018-11-29T14:40:01.535Z,35.27
2018-11-29T14:42:28.852Z,34.63
2018-11-29T14:44:56.147Z,36.17
2018-11-29T14:47:23.404Z,33.33
2018-11-29T14:49:50.683Z,39.00
2018-11-29T14:52:17.888Z,36.77
2018-11-29T14:54:45.235Z,32.97
2018-11-29T14:57:12.476Z,39.40
2018-11-29T14:59:39.816Z,31.83
2018-11-29T15:02:07.080Z,28.43
2018-11-29T15:04:34.300Z,38.60
2018-11-29T15:07:01.639Z,38.60
2018-11-29T15:09:28.986Z,32.87
2018-11-29T15:11:56.363Z,33.70
2018-11-29T15:14:23.702Z,35.47
2018-11-29T15:16:50.988Z,31.63
2018-11-29T15:19:18.351Z,32.50
2018-11-29T15:21:45.610Z,29.50
2018-11-29T15:24:12.940Z,38.47
2018-11-29T15:26:40.218Z,35.37
2018-11-29T15:29:07.533Z,32.00
2018-11-29T15:31:34.785Z,29.70
2018-11-29T15:34:02.120Z,35.73
2018-11-29T15:36:29.419Z,34.47
2018-11-29T15:38:56.696Z,30.40
2018-11-29T15:41:24.026Z,31.80
2018-11-29T15:43:51.382Z,32.23
2018-11-29T15:46:18.661Z,30.10
2018-11-29T15:48:46.039Z,30.17
2018-11-29T15:51:13.433Z,33.20
2018-11-29T15:53:40.682Z,33.80
2018-11-29T15:56:07.983Z,30.07
2018-11-29T15:58:35.274Z,33.37
2018-11-29T16:01:02.614Z,31.50
2018-11-29T16:03:29.895Z,32.73
2018-11-29T16:05:57.202Z,32.33
2018-11-29T16:08:24.553Z,37.27
2018-11-29T16:10:51.790Z,34.97
2018-11-29T16:13:19.086Z,34.17
2018-11-29T16:15:46.406Z,31.33
2018-11-29T16:18:13.702Z,38.27
2018-11-29T16:20:41.027Z,36.47
2018-11-29T16:23:09.206Z,36.40
2018-11-29T16:25:36.419Z,32.93
2018-11-29T16:28:05.224Z,30.13
2018-11-29T16:31:03.118Z,31.73
2018-11-29T16:33:32.893Z,29.93
2018-11-29T16:36:00.341Z,33.80
2018-11-29T16:38:27.601Z,27.13
2018-11-29T16:40:54.876Z,28.60
2018-11-29T16:43:22.291Z,33.20
2018-11-29T16:45:49.516Z,31.43
2018-11-29T16:48:16.760Z,27.53
2018-11-29T16:50:44.079Z,28.83
2018-11-29T16:53:11.388Z,38.70
2018-11-29T16:55:38.749Z,32.93
2018-11-29T16:58:09.547Z,28.33
2018-11-29T17:00:36.899Z,32.63
2018-11-29T17:03:04.316Z,31.40
2018-11-29T17:05:31.574Z,35.17
2018-11-29T17:07:58.927Z,34.63
2018-11-29T17:10:26.192Z,26.23
2018-11-29T17:12:55.027Z,30.23
2018-11-29T17:15:22.284Z,34.43
2018-11-29T17:17:49.579Z,37.13
2018-11-29T17:20:18.035Z,33.10
2018-11-29T17:22:46.434Z,34.20
2018-11-29T17:25:13.767Z,32.90
2018-11-29T17:27:41.066Z,34.83
2018-11-29T17:30:17.029Z,37.47
2018-11-29T17:32:44.351Z,34.97
2018-11-29T17:35:11.615Z,35.70
2018-11-29T17:37:38.909Z,30.00
2018-11-29T17:40:08.199Z,32.70
2018-11-29T17:42:35.487Z,31.53
2018-11-29T17:45:03.115Z,31.90
2018-11-29T17:47:30.427Z,30.57
2018-11-29T17:49:57.834Z,53.73
2018-11-29T17:52:25.156Z,90.70
2018-11-29T17:54:52.491Z,70.53
2018-11-29T17:57:19.747Z,43.47
2018-11-29T17:59:47.018Z,36.30
2018-11-29T18:02:14.327Z,28.73
2018-11-29T18:04:41.711Z,38.37
2018-11-29T18:07:09.022Z,37.07
2018-11-29T18:09:36.272Z,41.60
2018-11-29T18:12:03.902Z,36.23
2018-11-29T18:14:31.123Z,33.17
2018-11-29T18:16:58.447Z,25.63
2018-11-29T18:19:25.847Z,27.97
2018-11-29T18:21:53.335Z,26.10
2018-11-29T18:24:20.506Z,25.53
2018-11-29T18:26:47.771Z,33.70
2018-11-29T18:29:15.100Z,27.33
2018-11-29T18:31:42.390Z,34.13
2018-11-29T18:34:09.717Z,26.17
2018-11-29T18:36:36.999Z,29.80
2018-11-29T18:39:07.215Z,25.53
2018-11-29T18:41:34.541Z,23.07
2018-11-29T18:44:01.822Z,30.40
2018-11-29T18:46:29.162Z,25.00
2018-11-29T18:48:56.509Z,25.93
2018-11-29T18:51:23.747Z,29.70
2018-11-29T18:53:50.999Z,27.70
2018-11-29T18:56:18.278Z,30.30
2018-11-29T18:58:45.640Z,27.60
2018-11-29T19:01:12.861Z,22.80
2018-11-29T19:03:40.139Z,22.60
2018-11-29T19:06:07.444Z,22.80
2018-11-29T19:08:34.706Z,21.97
2018-11-29T19:11:02.046Z,25.63
2018-11-29T19:13:29.347Z,25.70
2018-11-29T19:15:56.694Z,25.03
2018-11-29T19:18:24.118Z,28.03
2018-11-29T19:20:51.404Z,24.03
2018-11-29T19:23:18.721Z,25.00
2018-11-29T19:25:46.053Z,25.00
2018-11-29T19:28:13.324Z,23.50
2018-11-29T19:30:40.512Z,24.53
2018-11-29T19:33:17.396Z,29.03
2018-11-29T19:35:41.178Z,27.00
2018-11-29T19:38:08.533Z,27.23
2018-11-29T19:40:35.820Z,21.97
2018-11-29T19:43:03.234Z,24.23
2018-11-29T19:45:30.507Z,22.10
2018-11-29T19:47:57.883Z,25.77
2018-11-29T19:50:25.298Z,22.37
2018-11-29T19:52:54.150Z,22.47
2018-11-29T19:55:22.827Z,23.30
2018-11-29T19:57:50.231Z,28.67
2018-11-29T20:00:17.522Z,26.93
2018-11-29T20:02:45.440Z,25.23
2018-11-29T20:05:12.951Z,27.27
2018-11-29T20:07:40.285Z,25.30
2018-11-29T20:10:09.245Z,22.43
2018-11-29T20:12:36.548Z,25.93
2018-11-29T20:15:05.855Z,29.00
2018-11-29T20:17:33.220Z,24.63
2018-11-29T20:20:00.510Z,28.00
2018-11-29T20:22:27.842Z,25.13
2018-11-29T20:24:55.143Z,28.63
2018-11-29T20:27:22.385Z,32.60
2018-11-29T20:29:49.731Z,30.07
2018-11-29T20:32:17.018Z,36.17
2018-11-29T20:34:44.395Z,26.03
2018-11-29T20:37:11.675Z,32.13
2018-11-29T20:39:39.030Z,24.70
2018-11-29T20:42:06.355Z,22.40
2018-11-29T20:44:33.746Z,22.73
2018-11-29T20:47:01.017Z,23.63
2018-11-29T20:49:28.269Z,22.33
2018-11-29T20:51:55.639Z,24.20
2018-11-29T20:54:22.903Z,24.90
2018-11-29T20:56:50.204Z,22.40
2018-11-29T20:59:17.462Z,23.47
2018-11-29T21:01:44.794Z,21.13
2018-11-29T21:04:12.144Z,26.90
2018-11-29T21:06:39.481Z,28.90
2018-11-29T21:09:09.228Z,24.50
2018-11-29T21:11:36.603Z,24.37
2018-11-29T21:14:03.897Z,23.00
2018-11-29T21:16:31.195Z,21.47
2018-11-29T21:18:58.571Z,24.93
2018-11-29T21:21:25.841Z,26.80
2018-11-29T21:23:53.135Z,26.83
2018-11-29T21:26:20.532Z,27.10
2018-11-29T21:28:47.786Z,21.70
2018-11-29T21:31:15.078Z,20.77
2018-11-29T21:33:42.391Z,19.23
2018-11-29T21:36:09.654Z,22.30
2018-11-29T21:38:36.950Z,30.90
2018-11-29T21:41:04.302Z,32.83
2018-11-29T21:43:31.570Z,35.57
2018-11-29T21:45:58.937Z,21.23
2018-11-29T21:48:26.278Z,21.20
2018-11-29T21:50:53.535Z,20.93
2018-11-29T21:53:20.911Z,14.93
2018-11-29T21:55:48.169Z,18.70
2018-11-29T21:58:15.471Z,18.07
2018-11-29T22:00:42.733Z,19.67
2018-11-29T22:03:10.118Z,18.97
2018-11-29T22:05:37.579Z,24.30
2018-11-29T22:08:04.892Z,22.27
2018-11-29T22:10:32.192Z,24.10
2018-11-29T22:13:00.735Z,18.67
2018-11-29T22:15:26.814Z,19.83
2018-11-29T22:18:04.112Z,19.30
2018-11-29T22:20:31.512Z,24.77
2018-11-29T22:22:58.776Z,18.03
2018-11-29T22:25:26.116Z,19.80
2018-11-29T22:27:53.365Z,21.00
2018-11-29T22:30:20.623Z,18.60
2018-11-29T22:32:47.969Z,18.17
2018-11-29T22:35:15.250Z,21.00
2018-11-29T22:37:42.518Z,22.20
2018-11-29T22:40:09.921Z,18.40
2018-11-29T22:42:37.226Z,18.20
2018-11-29T22:45:06.395Z,23.23
2018-11-29T22:47:33.711Z,19.20
2018-11-29T22:50:01.019Z,23.47
2018-11-29T22:52:28.255Z,22.47
2018-11-29T22:54:55.584Z,18.80
2018-11-29T22:57:22.927Z,19.83
2018-11-29T22:59:50.357Z,21.37
2018-11-29T23:02:17.684Z,19.27
2018-11-29T23:04:44.946Z,23.07
2018-11-29T23:07:12.381Z,21.63
2018-11-29T23:09:39.640Z,18.50
2018-11-29T23:12:06.980Z,21.40
2018-11-29T23:14:34.305Z,16.00
2018-11-29T23:17:01.579Z,23.80
2018-11-29T23:19:28.979Z,31.77
2018-11-29T23:21:56.282Z,29.67
2018-11-29T23:24:23.626Z,29.43
2018-11-29T23:26:50.948Z,27.07
2018-11-29T23:29:18.285Z,25.77
2018-11-29T23:31:45.571Z,17.70
2018-11-29T23:34:12.857Z,23.73
2018-11-29T23:36:40.191Z,17.47
2018-11-29T23:39:07.532Z,17.80
2018-11-29T23:41:34.815Z,14.43
2018-11-29T23:44:02.053Z,24.33
2018-11-29T23:46:29.344Z,16.90
2018-11-29T23:48:56.579Z,19.30
2018-11-29T23:51:23.878Z,22.17
2018-11-29T23:53:51.123Z,16.77
2018-11-29T23:56:18.384Z,14.97
2018-11-29T23:58:45.727Z,21.50
